Terminal Aerodrome Forecast
Issued by NWS

Home | Current Version | Previous Version | Text Only | Print | Product List | Glossary On
Versions: 1 2 3 4 5 6 7 8 9 10 11 12 13 14 15 16 17 18 19 20 21 22 23 24 25 26 27 28 29 30
000
FTUS45 KSLC 071120
TAFSGU
TAF
KSGU 071120Z 0712/0812 VRB04KT P6SM SCT060 SCT120
     FM072000 25010G15KT P6SM SCT080 SCT130
     FM080300 VRB04KT P6SM SCT080 SCT150
      AMD LTD TO CLD VIS AND WIND=

USA.gov is the U.S. government's official web portal to all federal, state and local government web resources and services.